THY1780 LPPT-LTFM
Flight info
| Callsign | THY1780 |
|---|---|
| Flight time | N/A |
| Altitude | 36000 |
| Route | ORVED DCT UREDI DCT DIPOL DCT RBO DCT PINAR DCT SEGRE DCT BRITO DCT PISUS DCT PONEN DCT SEROX N870 BCN/N0429F370 DCT DIPES/N0427F360 N725 OSPOK/N0427F370 DCT NOLVI DCT ORKUM/N0426F360 DCT ELSAG DCT ALG DCT ARSIK DCT MOROB DCT ADRUX DCT ROXAN DCT POKAV DCT GOKEL/N0430F370 DCT LIMJA DCT TIRCA DCT PINDO DCT PEREN UN644 DIGTI T162 DRAMO |
| Aircraft | A21N/M-SDE2E3FGHIRWXY/LB1 |
Departure
| Time | 2026-05-04 04:02 |
|---|---|
| Airport | Lisbon Humberto Delgado Airport (LPPT) |
Arrival
| Time | N/A |
|---|---|
| Airport | İstanbul Airport (LTFM) |
| Time | Latitude | Longitude | Altitude | Speed | Heading |
|---|---|---|---|---|---|
| 2026-05-04 03:33 | 38.76981 | -9.13082 | 338 ft | 0 kts | 79° |
| 2026-05-04 03:34 | 38.76981 | -9.13083 | 337 ft | 0 kts | 79° |
| 2026-05-04 03:34 | 38.76981 | -9.13082 | 337 ft | 0 kts | 79° |
| 2026-05-04 03:44 | 38.76981 | -9.13083 | 337 ft | 0 kts | 79° |
| 2026-05-04 03:49 | 38.76977 | -9.13107 | 336 ft | 4 kts | 82° |
| 2026-05-04 03:49 | 38.76976 | -9.13141 | 334 ft | 4 kts | 100° |
| 2026-05-04 03:49 | 38.76984 | -9.13166 | 336 ft | 4 kts | 160° |
| 2026-05-04 03:50 | 38.76988 | -9.13168 | 336 ft | 0 kts | 168° |
| 2026-05-04 03:54 | 38.76983 | -9.13166 | 338 ft | 3 kts | 168° |
| 2026-05-04 03:54 | 38.76954 | -9.13160 | 339 ft | 4 kts | 169° |
| 2026-05-04 03:55 | 38.76935 | -9.13155 | 336 ft | 3 kts | 170° |
| 2026-05-04 03:55 | 38.76890 | -9.13143 | 338 ft | 8 kts | 162° |
| 2026-05-04 03:55 | 38.76842 | -9.13130 | 337 ft | 6 kts | 167° |
| 2026-05-04 03:55 | 38.76811 | -9.13123 | 337 ft | 3 kts | 181° |
| 2026-05-04 03:56 | 38.76805 | -9.13127 | 338 ft | 0 kts | 206° |
| 2026-05-04 03:56 | 38.76787 | -9.13139 | 337 ft | 7 kts | 209° |
| 2026-05-04 03:56 | 38.76771 | -9.13217 | 338 ft | 10 kts | 258° |
| 2026-05-04 03:56 | 38.76758 | -9.13296 | 353 ft | 7 kts | 258° |
| 2026-05-04 03:57 | 38.76750 | -9.13341 | 342 ft | 3 kts | 257° |
| 2026-05-04 03:57 | 38.76747 | -9.13360 | 343 ft | 3 kts | 256° |
| 2026-05-04 03:57 | 38.76730 | -9.13395 | 350 ft | 5 kts | 217° |
| 2026-05-04 03:57 | 38.76692 | -9.13432 | 349 ft | 8 kts | 218° |
| 2026-05-04 03:58 | 38.76634 | -9.13599 | 345 ft | 11 kts | 261° |
| 2026-05-04 03:58 | 38.76622 | -9.13679 | 348 ft | 8 kts | 258° |
| 2026-05-04 03:58 | 38.76614 | -9.13736 | 353 ft | 6 kts | 262° |
| 2026-05-04 03:59 | 38.76608 | -9.13777 | 346 ft | 4 kts | 259° |
| 2026-05-04 03:59 | 38.76604 | -9.13807 | 346 ft | 3 kts | 259° |
| 2026-05-04 03:59 | 38.76599 | -9.13837 | 350 ft | 4 kts | 258° |
| 2026-05-04 03:59 | 38.76590 | -9.13886 | 345 ft | 6 kts | 257° |
| 2026-05-04 04:00 | 38.76579 | -9.13948 | 348 ft | 8 kts | 257° |
| 2026-05-04 04:00 | 38.76560 | -9.14015 | 352 ft | 8 kts | 236° |
| 2026-05-04 04:00 | 38.76522 | -9.14070 | 347 ft | 8 kts | 223° |
| 2026-05-04 04:00 | 38.76493 | -9.14141 | 353 ft | 10 kts | 256° |
| 2026-05-04 04:01 | 38.76518 | -9.14247 | 338 ft | 15 kts | 292° |
| 2026-05-04 04:01 | 38.76564 | -9.14390 | 333 ft | 19 kts | 292° |
| 2026-05-04 04:01 | 38.76603 | -9.14411 | 336 ft | 6 kts | 19° |
| 2026-05-04 04:01 | 38.76657 | -9.14381 | 335 ft | 21 kts | 22° |
| 2026-05-04 04:02 | 38.77031 | -9.14190 | 352 ft | 92 kts | 22° |
| 2026-05-04 04:02 | 38.77813 | -9.13768 | 367 ft | 149 kts | 24° |
| 2026-05-04 04:02 | 38.78895 | -9.13190 | 559 ft | 177 kts | 21° |
| 2026-05-04 04:02 | 38.80029 | -9.12594 | 1254 ft | 176 kts | 19° |
| 2026-05-04 04:03 | 38.81174 | -9.12005 | 1865 ft | 184 kts | 20° |
| 2026-05-04 04:03 | 38.82365 | -9.11162 | 2092 ft | 207 kts | 28° |
| 2026-05-04 04:03 | 38.83665 | -9.10149 | 2260 ft | 232 kts | 28° |
| 2026-05-04 04:03 | 38.85106 | -9.09026 | 2677 ft | 249 kts | 28° |
| 2026-05-04 04:04 | 38.86606 | -9.07855 | 3388 ft | 254 kts | 28° |
| 2026-05-04 04:04 | 38.87610 | -9.07072 | 3895 ft | 257 kts | 28° |
| 2026-05-04 04:04 | 38.88854 | -9.06067 | 4510 ft | 261 kts | 34° |
| 2026-05-04 04:04 | 38.90058 | -9.04289 | 5198 ft | 271 kts | 59° |
| 2026-05-04 04:05 | 38.90888 | -9.02091 | 5945 ft | 275 kts | 62° |
| 2026-05-04 04:05 | 38.91702 | -8.99891 | 6670 ft | 278 kts | 63° |
| 2026-05-04 04:05 | 38.92540 | -8.97627 | 7365 ft | 282 kts | 62° |
| 2026-05-04 04:05 | 38.93395 | -8.95329 | 8051 ft | 287 kts | 62° |
| 2026-05-04 04:06 | 38.94264 | -8.93001 | 8713 ft | 292 kts | 62° |
| 2026-05-04 04:06 | 38.95151 | -8.90623 | 9405 ft | 297 kts | 62° |
| 2026-05-04 04:06 | 38.96050 | -8.88212 | 10064 ft | 302 kts | 62° |
| 2026-05-04 04:06 | 38.96980 | -8.85715 | 10374 ft | 320 kts | 63° |
| 2026-05-04 04:07 | 38.97976 | -8.83041 | 10500 ft | 343 kts | 63° |
| 2026-05-04 04:07 | 38.99032 | -8.80203 | 10839 ft | 357 kts | 63° |
| 2026-05-04 04:07 | 39.00109 | -8.77302 | 11423 ft | 362 kts | 63° |
| 2026-05-04 04:07 | 39.01200 | -8.74364 | 12025 ft | 367 kts | 63° |
| 2026-05-04 04:08 | 39.02305 | -8.71381 | 12626 ft | 372 kts | 63° |
| 2026-05-04 04:08 | 39.03423 | -8.68365 | 13224 ft | 376 kts | 63° |
| 2026-05-04 04:08 | 39.04556 | -8.65301 | 13818 ft | 381 kts | 63° |
| 2026-05-04 04:08 | 39.05699 | -8.62203 | 14360 ft | 385 kts | 63° |
| 2026-05-04 04:09 | 39.06855 | -8.59070 | 14917 ft | 389 kts | 63° |
| 2026-05-04 04:09 | 39.08010 | -8.55938 | 15474 ft | 393 kts | 63° |
| 2026-05-04 04:09 | 39.09190 | -8.52738 | 16035 ft | 397 kts | 63° |
| 2026-05-04 04:09 | 39.10377 | -8.49515 | 16610 ft | 400 kts | 63° |
| 2026-05-04 04:10 | 39.11578 | -8.46247 | 17158 ft | 404 kts | 63° |
| 2026-05-04 04:10 | 39.12774 | -8.42985 | 17705 ft | 408 kts | 63° |
| 2026-05-04 04:10 | 39.13991 | -8.39661 | 18244 ft | 412 kts | 63° |
| 2026-05-04 04:10 | 39.15221 | -8.36305 | 18729 ft | 416 kts | 63° |
| 2026-05-04 04:11 | 39.16461 | -8.32916 | 19174 ft | 421 kts | 63° |
| 2026-05-04 04:11 | 39.17717 | -8.29480 | 19610 ft | 425 kts | 63° |
| 2026-05-04 04:11 | 39.18985 | -8.26008 | 20053 ft | 430 kts | 63° |
| 2026-05-04 04:11 | 39.20268 | -8.22495 | 20492 ft | 435 kts | 64° |
| 2026-05-04 04:12 | 39.21563 | -8.18943 | 20936 ft | 440 kts | 64° |
| 2026-05-04 04:12 | 39.22855 | -8.15393 | 21374 ft | 444 kts | 64° |
| 2026-05-04 04:12 | 39.24176 | -8.11755 | 21808 ft | 449 kts | 64° |
| 2026-05-04 04:12 | 39.25507 | -8.08083 | 22245 ft | 453 kts | 64° |
| 2026-05-04 04:13 | 39.26849 | -8.04378 | 22665 ft | 458 kts | 64° |
| 2026-05-04 04:13 | 39.28185 | -8.00625 | 23076 ft | 462 kts | 66° |
| 2026-05-04 04:13 | 39.29423 | -7.96782 | 23469 ft | 466 kts | 68° |
| 2026-05-04 04:13 | 39.30578 | -7.92844 | 23826 ft | 470 kts | 70° |
| 2026-05-04 04:14 | 39.31679 | -7.88854 | 24167 ft | 473 kts | 71° |
| 2026-05-04 04:14 | 39.32769 | -7.84822 | 24519 ft | 476 kts | 71° |
| 2026-05-04 04:14 | 39.33859 | -7.80829 | 24866 ft | 479 kts | 71° |
| 2026-05-04 04:14 | 39.34988 | -7.76766 | 25210 ft | 482 kts | 70° |
| 2026-05-04 04:15 | 39.36148 | -7.72682 | 25554 ft | 485 kts | 70° |
| 2026-05-04 04:15 | 39.37331 | -7.68593 | 25888 ft | 487 kts | 69° |
| 2026-05-04 04:15 | 39.38595 | -7.64519 | 26219 ft | 490 kts | 64° |
| 2026-05-04 04:15 | 39.40137 | -7.60558 | 26538 ft | 493 kts | 62° |
| 2026-05-04 04:16 | 39.41683 | -7.56599 | 26864 ft | 495 kts | 63° |
| 2026-05-04 04:16 | 39.43225 | -7.52604 | 27190 ft | 498 kts | 63° |
| 2026-05-04 04:16 | 39.44771 | -7.48572 | 27508 ft | 501 kts | 63° |
| 2026-05-04 04:16 | 39.46321 | -7.44517 | 27829 ft | 504 kts | 63° |
| 2026-05-04 04:17 | 39.47864 | -7.40484 | 28140 ft | 506 kts | 63° |
| 2026-05-04 04:17 | 39.49428 | -7.36384 | 28447 ft | 509 kts | 63° |
| 2026-05-04 04:17 | 39.50995 | -7.32264 | 28753 ft | 511 kts | 63° |
| 2026-05-04 04:17 | 39.52573 | -7.28121 | 29050 ft | 514 kts | 63° |
| 2026-05-04 04:18 | 39.54154 | -7.23976 | 29340 ft | 516 kts | 63° |
| 2026-05-04 04:18 | 39.55756 | -7.19780 | 29628 ft | 519 kts | 63° |
| 2026-05-04 04:18 | 39.57360 | -7.15583 | 29919 ft | 521 kts | 63° |
| 2026-05-04 04:18 | 39.58970 | -7.11360 | 30193 ft | 524 kts | 63° |
| 2026-05-04 04:19 | 39.60582 | -7.07119 | 30447 ft | 526 kts | 63° |
| 2026-05-04 04:19 | 39.62177 | -7.02908 | 30709 ft | 527 kts | 63° |
| 2026-05-04 04:19 | 39.63789 | -6.98638 | 31076 ft | 526 kts | 63° |
| 2026-05-04 04:19 | 39.65395 | -6.94377 | 31452 ft | 525 kts | 63° |
| 2026-05-04 04:20 | 39.66998 | -6.90123 | 31813 ft | 524 kts | 63° |
| 2026-05-04 04:20 | 39.68598 | -6.85874 | 32162 ft | 523 kts | 63° |
| 2026-05-04 04:20 | 39.70195 | -6.81633 | 32518 ft | 523 kts | 63° |
| 2026-05-04 04:20 | 39.71788 | -6.77396 | 32857 ft | 522 kts | 64° |
| 2026-05-04 04:21 | 39.73377 | -6.73156 | 33207 ft | 521 kts | 64° |
| 2026-05-04 04:21 | 39.74963 | -6.68922 | 33538 ft | 521 kts | 64° |
| 2026-05-04 04:21 | 39.76543 | -6.64696 | 33877 ft | 520 kts | 64° |
| 2026-05-04 04:21 | 39.78120 | -6.60469 | 34178 ft | 519 kts | 64° |
| 2026-05-04 04:22 | 39.79694 | -6.56246 | 34468 ft | 518 kts | 64° |
| 2026-05-04 04:22 | 39.81265 | -6.52029 | 34749 ft | 517 kts | 64° |
| 2026-05-04 04:22 | 39.82830 | -6.47823 | 35038 ft | 516 kts | 64° |
| 2026-05-04 04:22 | 39.84387 | -6.43626 | 35313 ft | 515 kts | 64° |
| 2026-05-04 04:23 | 39.85941 | -6.39426 | 35607 ft | 514 kts | 64° |
| 2026-05-04 04:23 | 39.87450 | -6.35207 | 35883 ft | 513 kts | 65° |
| 2026-05-04 04:23 | 39.88895 | -6.30961 | 35999 ft | 512 kts | 66° |
| 2026-05-04 04:23 | 39.90294 | -6.26699 | 36026 ft | 511 kts | 67° |
| 2026-05-04 04:24 | 39.93031 | -6.18201 | 36018 ft | 510 kts | 67° |
| 2026-05-04 04:24 | 39.95811 | -6.09685 | 36015 ft | 510 kts | 67° |
| 2026-05-04 04:25 | 39.98623 | -6.01204 | 36013 ft | 510 kts | 66° |
| 2026-05-04 04:25 | 40.01446 | -5.92707 | 36017 ft | 510 kts | 67° |
| 2026-05-04 04:26 | 40.04226 | -5.84266 | 36010 ft | 510 kts | 67° |
| 2026-05-04 04:26 | 40.07006 | -5.75749 | 36017 ft | 510 kts | 67° |
| 2026-05-04 04:27 | 40.09780 | -5.67226 | 36013 ft | 510 kts | 67° |
| 2026-05-04 04:27 | 40.12553 | -5.58698 | 36023 ft | 510 kts | 67° |
| 2026-05-04 04:28 | 40.15325 | -5.50165 | 36019 ft | 510 kts | 68° |
| 2026-05-04 04:28 | 40.18083 | -5.41626 | 36018 ft | 509 kts | 68° |
| 2026-05-04 04:29 | 40.20831 | -5.33084 | 36021 ft | 509 kts | 68° |
| 2026-05-04 04:29 | 40.23577 | -5.24549 | 36018 ft | 509 kts | 68° |
| 2026-05-04 04:30 | 40.26300 | -5.16056 | 36016 ft | 508 kts | 68° |
| 2026-05-04 04:30 | 40.29031 | -5.07509 | 36017 ft | 508 kts | 68° |
| 2026-05-04 04:31 | 40.31744 | -4.98973 | 36013 ft | 507 kts | 68° |
| 2026-05-04 04:31 | 40.34458 | -4.90428 | 36007 ft | 507 kts | 68° |
| 2026-05-04 04:32 | 40.37168 | -4.81873 | 36000 ft | 507 kts | 68° |
| 2026-05-04 04:32 | 40.39854 | -4.73333 | 36004 ft | 506 kts | 68° |
| 2026-05-04 04:33 | 40.42520 | -4.64829 | 36001 ft | 507 kts | 68° |
| 2026-05-04 04:33 | 40.44549 | -4.58377 | 36002 ft | 507 kts | 68° |
| 2026-05-04 04:34 | 40.47232 | -4.49819 | 35997 ft | 506 kts | 69° |
| 2026-05-04 04:34 | 40.49454 | -4.42695 | 36001 ft | 506 kts | 69° |
| 2026-05-04 04:35 | 40.52567 | -4.32683 | 36000 ft | 507 kts | 69° |
| 2026-05-04 04:35 | 40.54777 | -4.25544 | 36001 ft | 507 kts | 69° |
| 2026-05-04 04:36 | 40.57430 | -4.16942 | 35997 ft | 506 kts | 69° |
| 2026-05-04 04:36 | 40.60059 | -4.08396 | 35998 ft | 506 kts | 69° |
| 2026-05-04 04:37 | 40.65333 | -3.91187 | 35991 ft | 506 kts | 69° |
| 2026-05-04 04:38 | 40.67953 | -3.82596 | 35999 ft | 505 kts | 69° |
| 2026-05-04 04:38 | 40.70563 | -3.74013 | 35951 ft | 506 kts | 69° |
| 2026-05-04 04:39 | 40.73177 | -3.65366 | 35945 ft | 507 kts | 69° |
| 2026-05-04 04:39 | 40.75791 | -3.56692 | 35949 ft | 509 kts | 69° |
| 2026-05-04 04:40 | 40.78404 | -3.48026 | 35961 ft | 511 kts | 69° |
| 2026-05-04 04:40 | 40.81029 | -3.39311 | 35968 ft | 511 kts | 69° |
| 2026-05-04 04:41 | 40.83641 | -3.30580 | 35971 ft | 511 kts | 70° |
| 2026-05-04 04:41 | 40.85982 | -3.21726 | 35975 ft | 509 kts | 78° |
| 2026-05-04 04:42 | 40.87760 | -3.12667 | 35975 ft | 509 kts | 77° |
| 2026-05-04 04:42 | 40.89536 | -3.03652 | 35984 ft | 510 kts | 77° |
| 2026-05-04 04:43 | 40.91320 | -2.94582 | 35989 ft | 510 kts | 77° |
| 2026-05-04 04:43 | 40.93092 | -2.85500 | 35986 ft | 510 kts | 78° |
| 2026-05-04 04:44 | 40.94851 | -2.76415 | 35992 ft | 510 kts | 78° |
| 2026-05-04 04:44 | 40.96609 | -2.67311 | 35990 ft | 510 kts | 78° |
| 2026-05-04 04:45 | 40.98364 | -2.58208 | 35993 ft | 510 kts | 78° |
| 2026-05-04 04:47 | 41.04423 | -2.26319 | 35988 ft | 511 kts | 78° |
| 2026-05-04 04:47 | 41.06157 | -2.17183 | 35987 ft | 512 kts | 78° |
| 2026-05-04 04:48 | 41.07883 | -2.08016 | 35983 ft | 512 kts | 78° |
| 2026-05-04 04:49 | 41.12121 | -1.85141 | 35985 ft | 512 kts | 79° |
| 2026-05-04 04:49 | 41.13814 | -1.75951 | 35986 ft | 512 kts | 79° |
| 2026-05-04 04:50 | 41.15502 | -1.66765 | 35986 ft | 512 kts | 79° |
| 2026-05-04 04:50 | 41.17181 | -1.57567 | 35987 ft | 512 kts | 79° |
| 2026-05-04 04:51 | 41.18847 | -1.48371 | 35985 ft | 512 kts | 79° |
| 2026-05-04 04:51 | 41.20497 | -1.39226 | 35984 ft | 512 kts | 79° |
| 2026-05-04 04:52 | 41.22151 | -1.30035 | 35990 ft | 512 kts | 79° |
| 2026-05-04 04:52 | 41.23800 | -1.20843 | 35986 ft | 511 kts | 79° |
| 2026-05-04 04:53 | 41.25444 | -1.11639 | 35983 ft | 511 kts | 79° |
| 2026-05-04 04:53 | 41.27073 | -1.02437 | 35987 ft | 511 kts | 79° |
| 2026-05-04 04:54 | 41.28687 | -0.93242 | 35987 ft | 510 kts | 79° |
| 2026-05-04 04:54 | 41.30307 | -0.84049 | 35987 ft | 510 kts | 79° |
| 2026-05-04 04:55 | 41.31911 | -0.74856 | 35989 ft | 510 kts | 79° |
| 2026-05-04 04:55 | 41.33508 | -0.65665 | 35992 ft | 509 kts | 79° |
| 2026-05-04 04:56 | 41.35034 | -0.56523 | 35989 ft | 507 kts | 84° |
| 2026-05-04 04:56 | 41.35345 | -0.47232 | 35993 ft | 501 kts | 95° |
| 2026-05-04 04:57 | 41.35273 | -0.37946 | 35988 ft | 501 kts | 95° |
| 2026-05-04 04:57 | 41.35207 | -0.28663 | 35989 ft | 501 kts | 95° |
| 2026-05-04 04:58 | 41.35132 | -0.19382 | 35989 ft | 501 kts | 95° |
| 2026-05-04 04:58 | 41.35044 | -0.10161 | 35987 ft | 500 kts | 95° |
| 2026-05-04 04:59 | 41.34940 | -0.00890 | 35994 ft | 500 kts | 95° |
| 2026-05-04 04:59 | 41.34836 | 0.08369 | 35990 ft | 500 kts | 95° |
| 2026-05-04 05:00 | 41.34728 | 0.17640 | 35986 ft | 500 kts | 95° |
| 2026-05-04 05:01 | 41.34551 | 0.31470 | 35988 ft | 500 kts | 95° |
| 2026-05-04 05:01 | 41.34425 | 0.40730 | 35989 ft | 501 kts | 95° |
| 2026-05-04 05:02 | 41.34287 | 0.50003 | 35991 ft | 500 kts | 95° |
| 2026-05-04 05:02 | 41.34134 | 0.59283 | 35993 ft | 500 kts | 95° |
| 2026-05-04 05:03 | 41.33987 | 0.68482 | 35992 ft | 500 kts | 95° |
| 2026-05-04 05:04 | 41.33665 | 0.87007 | 36001 ft | 499 kts | 96° |
| 2026-05-04 05:04 | 41.33486 | 0.96199 | 36008 ft | 499 kts | 96° |
| 2026-05-04 05:06 | 41.32727 | 1.33137 | 36013 ft | 498 kts | 96° |
| 2026-05-04 05:07 | 41.32514 | 1.42350 | 36016 ft | 498 kts | 96° |
| 2026-05-04 05:07 | 41.32295 | 1.51558 | 36012 ft | 498 kts | 96° |
| 2026-05-04 05:09 | 41.31235 | 1.92892 | 36010 ft | 496 kts | 96° |
| 2026-05-04 05:10 | 41.30978 | 2.02024 | 36010 ft | 496 kts | 96° |
| 2026-05-04 05:10 | 41.30585 | 2.11175 | 36006 ft | 493 kts | 103° |
| 2026-05-04 05:11 | 41.29194 | 2.20040 | 36010 ft | 489 kts | 107° |
| 2026-05-04 05:11 | 41.27736 | 2.28887 | 36013 ft | 490 kts | 107° |
| 2026-05-04 05:12 | 41.26272 | 2.37737 | 36007 ft | 490 kts | 107° |
| 2026-05-04 05:12 | 41.24804 | 2.46521 | 35998 ft | 490 kts | 107° |
| 2026-05-04 05:13 | 41.23322 | 2.55375 | 35992 ft | 490 kts | 107° |
| 2026-05-04 05:13 | 41.21831 | 2.64246 | 35991 ft | 491 kts | 107° |
| 2026-05-04 05:14 | 41.20343 | 2.73056 | 35994 ft | 491 kts | 107° |
| 2026-05-04 05:14 | 41.18834 | 2.81905 | 35992 ft | 491 kts | 107° |
| 2026-05-04 05:15 | 41.17314 | 2.90765 | 35990 ft | 491 kts | 107° |
| 2026-05-04 05:15 | 41.15795 | 2.99617 | 35988 ft | 492 kts | 107° |
| 2026-05-04 05:16 | 41.14280 | 3.08445 | 35989 ft | 492 kts | 107° |
| 2026-05-04 05:16 | 41.12746 | 3.17311 | 35992 ft | 492 kts | 107° |
| 2026-05-04 05:17 | 41.11212 | 3.26105 | 35993 ft | 492 kts | 107° |
| 2026-05-04 05:17 | 41.09662 | 3.34954 | 35997 ft | 492 kts | 107° |
| 2026-05-04 05:18 | 41.08099 | 3.43813 | 35995 ft | 493 kts | 107° |
| 2026-05-04 05:18 | 41.06528 | 3.52667 | 35988 ft | 493 kts | 107° |
| 2026-05-04 05:19 | 41.04963 | 3.61465 | 35990 ft | 493 kts | 107° |
| 2026-05-04 05:19 | 41.03381 | 3.70322 | 35991 ft | 494 kts | 107° |
| 2026-05-04 05:20 | 41.01801 | 3.79176 | 35985 ft | 494 kts | 107° |
| 2026-05-04 05:20 | 41.00212 | 3.88032 | 35985 ft | 494 kts | 107° |
| 2026-05-04 05:21 | 40.98873 | 3.95391 | 35991 ft | 495 kts | 107° |
| 2026-05-04 05:21 | 40.97261 | 4.04239 | 35997 ft | 495 kts | 107° |
| 2026-05-04 05:22 | 40.95382 | 4.14543 | 35999 ft | 495 kts | 107° |
| 2026-05-04 05:22 | 40.94015 | 4.21979 | 35989 ft | 496 kts | 107° |
| 2026-05-04 05:23 | 40.92380 | 4.30839 | 36009 ft | 496 kts | 107° |
| 2026-05-04 05:23 | 40.90745 | 4.39643 | 36008 ft | 496 kts | 108° |
| 2026-05-04 05:24 | 40.89082 | 4.48498 | 36008 ft | 497 kts | 107° |
| 2026-05-04 05:24 | 40.87430 | 4.57378 | 36017 ft | 497 kts | 107° |
| 2026-05-04 05:25 | 40.85798 | 4.66276 | 36017 ft | 499 kts | 104° |
| 2026-05-04 05:25 | 40.84896 | 4.75348 | 36020 ft | 501 kts | 99° |
| 2026-05-04 05:26 | 40.84059 | 4.84499 | 36023 ft | 502 kts | 99° |
| 2026-05-04 05:26 | 40.83206 | 4.93641 | 36028 ft | 502 kts | 99° |
| 2026-05-04 05:28 | 40.79708 | 5.30208 | 36030 ft | 502 kts | 99° |
| 2026-05-04 05:29 | 40.78823 | 5.39362 | 36030 ft | 503 kts | 100° |
| 2026-05-04 05:29 | 40.77924 | 5.48511 | 36029 ft | 503 kts | 100° |
| 2026-05-04 05:31 | 40.74261 | 5.85094 | 36041 ft | 504 kts | 100° |
| 2026-05-04 05:32 | 40.73315 | 5.94260 | 36050 ft | 504 kts | 100° |
| 2026-05-04 05:33 | 40.71893 | 6.07951 | 36053 ft | 505 kts | 100° |
| 2026-05-04 05:33 | 40.70935 | 6.17135 | 36054 ft | 505 kts | 100° |
| 2026-05-04 05:34 | 40.69967 | 6.26306 | 36058 ft | 505 kts | 100° |
| 2026-05-04 05:34 | 40.68990 | 6.35474 | 36057 ft | 505 kts | 100° |
| 2026-05-04 05:35 | 40.68007 | 6.44592 | 36061 ft | 505 kts | 100° |
| 2026-05-04 05:35 | 40.67020 | 6.53757 | 36059 ft | 505 kts | 100° |
| 2026-05-04 05:36 | 40.66124 | 6.62111 | 36065 ft | 505 kts | 100° |
| 2026-05-04 05:36 | 40.65128 | 6.71286 | 36064 ft | 505 kts | 100° |
| 2026-05-04 05:37 | 40.64117 | 6.80451 | 36066 ft | 505 kts | 100° |
| 2026-05-04 05:37 | 40.63097 | 6.89568 | 36070 ft | 506 kts | 100° |
| 2026-05-04 05:38 | 40.61548 | 7.03308 | 36073 ft | 506 kts | 100° |
| 2026-05-04 05:38 | 40.60514 | 7.12471 | 36073 ft | 506 kts | 100° |
| 2026-05-04 05:39 | 40.58947 | 7.26245 | 36081 ft | 506 kts | 100° |
| 2026-05-04 05:40 | 40.57366 | 7.39928 | 36082 ft | 506 kts | 100° |
| 2026-05-04 05:40 | 40.56619 | 7.49121 | 36078 ft | 507 kts | 89° |
| 2026-05-04 05:41 | 40.57287 | 7.58336 | 36084 ft | 507 kts | 83° |
| 2026-05-04 05:41 | 40.58087 | 7.67551 | 36081 ft | 507 kts | 83° |
| 2026-05-04 05:42 | 40.58865 | 7.76784 | 36086 ft | 507 kts | 83° |
| 2026-05-04 05:42 | 40.59634 | 7.85955 | 36090 ft | 507 kts | 83° |
| 2026-05-04 05:43 | 40.60412 | 7.95194 | 36097 ft | 507 kts | 83° |
| 2026-05-04 05:45 | 40.63433 | 8.32088 | 36108 ft | 507 kts | 83° |
| 2026-05-04 05:47 | 40.66344 | 8.69045 | 36113 ft | 506 kts | 83° |
| 2026-05-04 05:47 | 40.67135 | 8.78197 | 36114 ft | 505 kts | 81° |
| 2026-05-04 05:48 | 40.68225 | 8.87325 | 36117 ft | 504 kts | 79° |
| 2026-05-04 05:48 | 40.69375 | 8.96442 | 36116 ft | 504 kts | 79° |
| 2026-05-04 05:49 | 40.70453 | 9.05586 | 36125 ft | 504 kts | 80° |
| 2026-05-04 05:49 | 40.71461 | 9.14655 | 36126 ft | 504 kts | 80° |
| 2026-05-04 05:51 | 40.75501 | 9.51125 | 36131 ft | 500 kts | 80° |
| 2026-05-04 05:52 | 40.76469 | 9.60144 | 36136 ft | 500 kts | 81° |
| 2026-05-04 05:52 | 40.77095 | 9.69292 | 36132 ft | 499 kts | 85° |
| 2026-05-04 05:54 | 40.78532 | 10.05761 | 36148 ft | 496 kts | 85° |
| 2026-05-04 05:55 | 40.78944 | 10.14856 | 36154 ft | 495 kts | 85° |
| 2026-05-04 05:55 | 40.79323 | 10.23926 | 36151 ft | 494 kts | 86° |
| 2026-05-04 05:56 | 40.79686 | 10.32926 | 36158 ft | 493 kts | 86° |
| 2026-05-04 05:56 | 40.80028 | 10.41585 | 36159 ft | 492 kts | 86° |
| 2026-05-04 05:57 | 40.80379 | 10.50603 | 36164 ft | 491 kts | 86° |
| 2026-05-04 05:57 | 40.80732 | 10.59614 | 36165 ft | 490 kts | 86° |
| 2026-05-04 05:58 | 40.81078 | 10.68609 | 36165 ft | 490 kts | 86° |
| 2026-05-04 05:58 | 40.81411 | 10.77518 | 36166 ft | 489 kts | 86° |
| 2026-05-04 05:59 | 40.81738 | 10.86488 | 36320 ft | 490 kts | 86° |
| 2026-05-04 05:59 | 40.81899 | 10.90972 | 36626 ft | 489 kts | 86° |
| 2026-05-04 05:59 | 40.82061 | 10.95472 | 36895 ft | 490 kts | 86° |
| 2026-05-04 06:00 | 40.82220 | 10.99957 | 37112 ft | 491 kts | 86° |
| 2026-05-04 06:00 | 40.82379 | 11.04465 | 37146 ft | 491 kts | 86° |
| 2026-05-04 06:00 | 40.82692 | 11.13476 | 37155 ft | 490 kts | 86° |
| 2026-05-04 06:01 | 40.82999 | 11.22454 | 37158 ft | 489 kts | 86° |
| 2026-05-04 06:03 | 40.84070 | 11.58189 | 37173 ft | 488 kts | 90° |
| 2026-05-04 06:05 | 40.83907 | 11.98337 | 37195 ft | 484 kts | 90° |
| 2026-05-04 06:06 | 40.83861 | 12.07173 | 37200 ft | 483 kts | 90° |
| 2026-05-04 06:06 | 40.83812 | 12.16041 | 37201 ft | 483 kts | 90° |
| 2026-05-04 06:07 | 40.83768 | 12.24891 | 37201 ft | 481 kts | 90° |
| 2026-05-04 06:07 | 40.83714 | 12.33729 | 37205 ft | 480 kts | 90° |
| 2026-05-04 06:08 | 40.83644 | 12.42543 | 37201 ft | 479 kts | 90° |
| 2026-05-04 06:08 | 40.83575 | 12.51362 | 37207 ft | 479 kts | 90° |
| 2026-05-04 06:09 | 40.83494 | 12.60152 | 37206 ft | 478 kts | 90° |
| 2026-05-04 06:11 | 40.83110 | 12.95099 | 37213 ft | 476 kts | 90° |
| 2026-05-04 06:13 | 40.82661 | 13.28558 | 37212 ft | 475 kts | 90° |
| 2026-05-04 06:14 | 40.82154 | 13.59045 | 37216 ft | 475 kts | 90° |
| 2026-05-04 06:15 | 40.82000 | 13.67756 | 37216 ft | 474 kts | 90° |
| 2026-05-04 06:15 | 40.81836 | 13.76460 | 37217 ft | 474 kts | 91° |
| 2026-05-04 06:16 | 40.81658 | 13.85160 | 37223 ft | 474 kts | 91° |
| 2026-05-04 06:16 | 40.81479 | 13.93856 | 37214 ft | 474 kts | 90° |
| 2026-05-04 06:17 | 40.81303 | 14.02495 | 37219 ft | 474 kts | 90° |
| 2026-05-04 06:17 | 40.81120 | 14.11182 | 37219 ft | 473 kts | 90° |
| 2026-05-04 06:18 | 40.80920 | 14.19862 | 37212 ft | 473 kts | 91° |
| 2026-05-04 06:20 | 40.80058 | 14.54584 | 37218 ft | 474 kts | 90° |
| 2026-05-04 06:21 | 40.79474 | 14.76319 | 37213 ft | 474 kts | 90° |
| 2026-05-04 06:22 | 40.79225 | 14.85012 | 37208 ft | 474 kts | 90° |
| 2026-05-04 06:25 | 40.77314 | 15.45884 | 37210 ft | 475 kts | 90° |
| 2026-05-04 06:26 | 40.77015 | 15.54593 | 37208 ft | 475 kts | 90° |
| 2026-05-04 06:26 | 40.76715 | 15.63295 | 37202 ft | 475 kts | 90° |
| 2026-05-04 06:27 | 40.75925 | 15.85042 | 37195 ft | 475 kts | 90° |
| 2026-05-04 06:28 | 40.75589 | 15.93734 | 37191 ft | 475 kts | 90° |
| 2026-05-04 06:28 | 40.75245 | 16.02434 | 37191 ft | 475 kts | 90° |
| 2026-05-04 06:29 | 40.74906 | 16.11118 | 37192 ft | 475 kts | 90° |
| 2026-05-04 06:29 | 40.74565 | 16.19823 | 37190 ft | 475 kts | 90° |
| 2026-05-04 06:30 | 40.74216 | 16.28515 | 37186 ft | 475 kts | 90° |
| 2026-05-04 06:30 | 40.73862 | 16.37150 | 37187 ft | 474 kts | 90° |
| 2026-05-04 06:31 | 40.73495 | 16.45833 | 37182 ft | 474 kts | 90° |
| 2026-05-04 06:31 | 40.73120 | 16.54508 | 37182 ft | 474 kts | 90° |
| 2026-05-04 06:33 | 40.71559 | 16.89240 | 37188 ft | 475 kts | 90° |
| 2026-05-04 06:34 | 40.71173 | 16.97537 | 37181 ft | 475 kts | 90° |
| 2026-05-04 06:34 | 40.70759 | 17.06195 | 37178 ft | 476 kts | 90° |
| 2026-05-04 06:36 | 40.69040 | 17.41064 | 37188 ft | 477 kts | 90° |
| 2026-05-04 06:37 | 40.68593 | 17.49785 | 37185 ft | 477 kts | 90° |
| 2026-05-04 06:37 | 40.68134 | 17.58514 | 37186 ft | 477 kts | 90° |
| 2026-05-04 06:38 | 40.67675 | 17.67237 | 37187 ft | 477 kts | 90° |
| 2026-05-04 06:40 | 40.65762 | 18.02083 | 37190 ft | 477 kts | 89° |
| 2026-05-04 06:40 | 40.65270 | 18.10747 | 37189 ft | 477 kts | 89° |
| 2026-05-04 06:41 | 40.64773 | 18.19470 | 37186 ft | 477 kts | 89° |
| 2026-05-04 06:41 | 40.64272 | 18.28184 | 37179 ft | 477 kts | 89° |
| 2026-05-04 06:42 | 40.63757 | 18.36886 | 37177 ft | 476 kts | 89° |
| 2026-05-04 06:44 | 40.61640 | 18.71613 | 37179 ft | 476 kts | 89° |
| 2026-05-04 06:44 | 40.61098 | 18.80299 | 37182 ft | 476 kts | 89° |
| 2026-05-04 06:45 | 40.60548 | 18.88978 | 37182 ft | 476 kts | 89° |
| 2026-05-04 06:45 | 40.59988 | 18.97659 | 37187 ft | 476 kts | 90° |
| 2026-05-04 06:46 | 40.59463 | 19.06275 | 37187 ft | 475 kts | 89° |
| 2026-05-04 06:46 | 40.59036 | 19.14934 | 37188 ft | 474 kts | 88° |
| 2026-05-04 06:48 | 40.57196 | 19.49547 | 37196 ft | 473 kts | 89° |
| 2026-05-04 06:50 | 40.55213 | 19.84030 | 37201 ft | 473 kts | 89° |
| 2026-05-04 06:51 | 40.54701 | 19.92660 | 37210 ft | 473 kts | 89° |
| 2026-05-04 06:51 | 40.54179 | 20.01271 | 37217 ft | 472 kts | 89° |
| 2026-05-04 06:52 | 40.53659 | 20.09818 | 37224 ft | 472 kts | 89° |
| 2026-05-04 06:52 | 40.53127 | 20.18427 | 37227 ft | 472 kts | 89° |
| 2026-05-04 06:53 | 40.52590 | 20.27021 | 37233 ft | 472 kts | 89° |
| 2026-05-04 06:53 | 40.52044 | 20.35633 | 37238 ft | 473 kts | 89° |
| 2026-05-04 06:54 | 40.51502 | 20.44255 | 37248 ft | 472 kts | 89° |
| 2026-05-04 06:54 | 40.50951 | 20.52857 | 37249 ft | 472 kts | 89° |
| 2026-05-04 06:55 | 40.50390 | 20.61406 | 37250 ft | 471 kts | 89° |
| 2026-05-04 06:55 | 40.49812 | 20.69998 | 37252 ft | 471 kts | 89° |
| 2026-05-04 06:57 | 40.48527 | 21.04095 | 37246 ft | 462 kts | 79° |
| 2026-05-04 06:58 | 40.48887 | 21.11090 | 37243 ft | 462 kts | 80° |
| 2026-05-04 06:58 | 40.49372 | 21.20888 | 37237 ft | 462 kts | 80° |
| 2026-05-04 06:59 | 40.49717 | 21.27944 | 37244 ft | 462 kts | 80° |
| 2026-05-04 06:59 | 40.50124 | 21.36312 | 37245 ft | 462 kts | 80° |
| 2026-05-04 07:01 | 40.51686 | 21.69954 | 37238 ft | 461 kts | 81° |
| 2026-05-04 07:02 | 40.52061 | 21.78369 | 37232 ft | 461 kts | 81° |
| 2026-05-04 07:02 | 40.52430 | 21.86788 | 37233 ft | 461 kts | 81° |
| 2026-05-04 07:03 | 40.52793 | 21.95206 | 37234 ft | 460 kts | 81° |
| 2026-05-04 07:03 | 40.53143 | 22.03536 | 37235 ft | 459 kts | 81° |
| 2026-05-04 07:04 | 40.53492 | 22.11923 | 37233 ft | 458 kts | 81° |
| 2026-05-04 07:04 | 40.53841 | 22.20289 | 37232 ft | 458 kts | 81° |
| 2026-05-04 07:05 | 40.54185 | 22.28636 | 37231 ft | 457 kts | 82° |
| 2026-05-04 07:05 | 40.54513 | 22.36971 | 37233 ft | 456 kts | 82° |
| 2026-05-04 07:06 | 40.54990 | 22.49455 | 37233 ft | 455 kts | 82° |
| 2026-05-04 07:07 | 40.55305 | 22.57766 | 37229 ft | 455 kts | 82° |
| 2026-05-04 07:09 | 40.56499 | 22.90838 | 37226 ft | 451 kts | 83° |